| time (UTC) | temp F | wind direction | speed MPH | gust MPH | rain 1hr in | rain 24hr in | rain mn in | humidity % | barometer mb |
| 20260902122547 | 81 | 260 | 4.0 | 12.0 | 0.00 | 0.00 | 0.00 | 38 | 1022.1 |
| 20260902121552 | 85 | 208 | 4.0 | 9.0 | 0.00 | 0.00 | 0.00 | 36 | 1022.0 |
| 20260902120556 | 86 | 203 | 5.0 | 12.0 | 0.00 | 0.00 | 0.00 | 35 | 1022.2 |
| 20260902115600 | 87 | 292 | 2.0 | 3.0 | 0.00 | 0.00 | 0.00 | 36 | 1022.3 |
| 20260902114604 | 86 | 283 | 3.0 | 6.0 | 0.00 | 0.00 | 0.00 | 36 | 1022.3 |
| 20260902113609 | 85 | 285 | 2.0 | 5.0 | 0.00 | 0.00 | 0.00 | 37 | 1022.3 |
| 20260902112613 | 85 | 252 | 3.0 | 6.0 | 0.00 | 0.00 | 0.00 | 35 | 1022.4 |
| 20260902111617 | 87 | 265 | 2.0 | 6.0 | 0.00 | 0.00 | 0.00 | 37 | 1022.6 |
| 20260902110621 | 85 | 258 | 4.0 | 11.0 | 0.00 | 0.00 | 0.00 | 39 | 1022.7 |
| 20260902105625 | 86 | 162 | 2.0 | 8.0 | 0.00 | 0.00 | 0.00 | 39 | 1022.8 |
| 20260902104630 | 84 | 243 | 2.0 | 7.0 | 0.00 | 0.00 | 0.00 | 40 | 1022.9 |
| 20260902103634 | 81 | 266 | 1.0 | 3.0 | 0.00 | 0.00 | 0.00 | 44 | 1023.0 |
| 20260902102638 | 83 | 235 | 1.0 | 3.0 | 0.00 | 0.00 | 0.00 | 43 | 1023.1 |
| 20260902101642 | 83 | 229 | 3.0 | 7.0 | 0.00 | 0.00 | 0.00 | 41 | 1023.2 |
| 20260902100646 | 82 | 238 | 2.0 | 8.0 | 0.00 | 0.00 | 0.00 | 42 | 1023.2 |
| 20260902095651 | 79 | 192 | 3.0 | 8.0 | 0.00 | 0.00 | 0.00 | 47 | 1023.4 |
| 20260902094655 | 74 | 164 | 4.0 | 9.0 | 0.00 | 0.00 | 0.00 | 52 | 1023.3 |
| 20260902093659 | 76 | 187 | 2.0 | 6.0 | 0.00 | 0.00 | 0.00 | 50 | 1023.5 |
| 20260902092703 | 76 | 173 | 3.0 | 7.0 | 0.00 | 0.00 | 0.00 | 49 | 1023.5 |
| 20260902091707 | 78 | 154 | 3.0 | 7.0 | 0.00 | 0.00 | 0.00 | 49 | 1023.5 |
| 20260902090712 | 74 | 161 | 2.0 | 7.0 | 0.00 | 0.00 | 0.00 | 51 | 1023.5 |
| 20260902085716 | 77 | 147 | 4.0 | 7.0 | 0.00 | 0.00 | 0.00 | 50 | 1023.4 |
| 20260902084720 | 76 | 138 | 3.0 | 6.0 | 0.00 | 0.00 | 0.00 | 50 | 1023.4 |
| 20260902083724 | 77 | 164 | 3.0 | 7.0 | 0.00 | 0.00 | 0.00 | 50 | 1023.5 |
| 20260902082728 | 77 | 182 | 3.0 | 7.0 | 0.00 | 0.00 | 0.00 | 51 | 1023.5 |
| 20260902081733 | 73 | 146 | 4.0 | 7.0 | 0.00 | 0.00 | 0.00 | 53 | 1023.4 |
| 20260902080737 | 74 | 149 | 3.0 | 6.0 | 0.00 | 0.00 | 0.00 | 54 | 1023.4 |
| 20260902075741 | 74 | 138 | 3.0 | 6.0 | 0.00 | 0.00 | 0.00 | 54 | 1023.5 |
| 20260902074745 | 75 | 119 | 2.0 | 5.0 | 0.00 | 0.00 | 0.00 | 52 | 1023.4 |
| 20260902073749 | 75 | 111 | 3.0 | 4.0 | 0.00 | 0.00 | 0.00 | 53 | 1023.3 |
| 20260902072754 | 75 | 143 | 2.0 | 5.0 | 0.00 | 0.00 | 0.00 | 53 | 1023.4 |
| 20260902071758 | 76 | 302 | 1.0 | 4.0 | 0.00 | 0.00 | 0.00 | 54 | 1023.4 |
| 20260902070802 | 75 | 285 | 2.0 | 4.0 | 0.00 | 0.00 | 0.00 | 55 | 1023.5 |
| 20260902065806 | 74 | 286 | 2.0 | 4.0 | 0.00 | 0.00 | 0.00 | 56 | 1023.5 |
| 20260902064811 | 74 | 263 | 1.0 | 3.0 | 0.00 | 0.00 | 0.00 | 57 | 1023.5 |
| 20260902063815 | 74 | 250 | 0.0 | 2.0 | 0.00 | 0.00 | 0.00 | 59 | 1023.5 |
| 20260902062819 | 72 | 246 | 1.0 | 4.0 | 0.00 | 0.00 | 0.00 | 60 | 1023.5 |
| 20260902061823 | 71 | 250 | 1.0 | 3.0 | 0.00 | 0.00 | 0.00 | 61 | 1023.5 |
| 20260902060827 | 70 | 210 | 0.0 | 2.0 | 0.00 | 0.00 | 0.00 | 61 | 1023.4 |
| 20260902054836 | 67 | 300 | 2.0 | 3.0 | 0.00 | 0.00 | 0.00 | 65 | 1023.4 |
| 20260902053840 | 66 | 307 | 0.0 | 2.0 | 0.00 | 0.00 | 0.00 | 66 | 1023.4 |
| 20260902052844 | 65 | 113 | 1.0 | 2.0 | 0.00 | 0.00 | 0.00 | 67 | 1023.4 |
| 20260902051849 | 64 | 307 | 1.0 | 2.0 | 0.00 | 0.00 | 0.00 | 68 | 1023.3 |
| 20260902050853 | 62 | 244 | 0.0 | 2.0 | 0.00 | 0.00 | 0.00 | 70 | 1023.1 |
| 20260902045857 | 60 | 261 | 1.0 | 2.0 | 0.00 | 0.00 | 0.00 | 72 | 1023.0 |
| 20260902044901 | 58 | 232 | 0.0 | 1.0 | 0.00 | 0.00 | 0.00 | 74 | 1022.9 |
| 20260902043906 | 56 | 122 | 1.0 | 2.0 | 0.00 | 0.00 | 0.00 | 77 | 1022.7 |
| 20260902041914 | 56 | 314 | 5.0 | 6.0 | 0.00 | 0.00 | 0.00 | 77 | 1022.6 |
| 20260902040918 | 56 | 313 | 5.0 | 6.0 | 0.00 | 0.00 | 0.00 | 77 | 1022.5 |
| 20260902035923 | 56 | 312 | 5.0 | 6.0 | 0.00 | 0.00 | 0.00 | 77 | 1022.5 |
| 20260902034927 | 56 | 311 | 5.0 | 6.0 | 0.00 | 0.00 | 0.00 | 77 | 1022.4 |
| 20260902033931 | 56 | 313 | 6.0 | 7.0 | 0.00 | 0.00 | 0.00 | 77 | 1022.5 |
| 20260902032935 | 57 | 313 | 5.0 | 6.0 | 0.00 | 0.00 | 0.00 | 76 | 1022.5 |
| 20260902031940 | 57 | 314 | 5.0 | 6.0 | 0.00 | 0.00 | 0.00 | 77 | 1022.5 |
| 20260902030944 | 57 | 315 | 5.0 | 6.0 | 0.00 | 0.00 | 0.00 | 77 | 1022.5 |
| 20260902025948 | 56 | 313 | 4.0 | 5.0 | 0.00 | 0.00 | 0.00 | 77 | 1022.6 |
| 20260902024953 | 56 | 312 | 4.0 | 6.0 | 0.00 | 0.00 | 0.00 | 76 | 1022.7 |
| 20260902023957 | 56 | 314 | 4.0 | 6.0 | 0.00 | 0.00 | 0.00 | 76 | 1022.7 |
| 20260902023001 | 56 | 312 | 4.0 | 5.0 | 0.00 | 0.00 | 0.00 | 75 | 1022.7 |
| 20260902022005 | 57 | 314 | 5.0 | 6.0 | 0.00 | 0.00 | 0.00 | 74 | 1022.7 |
| 20260902021010 | 57 | 314 | 5.0 | 6.0 | 0.00 | 0.00 | 0.00 | 74 | 1022.5 |
| 20260902020014 | 57 | 314 | 4.0 | 6.0 | 0.00 | 0.00 | 0.00 | 74 | 1022.5 |
| 20260902015018 | 57 | 313 | 3.0 | 4.0 | 0.00 | 0.00 | 0.00 | 72 | 1022.5 |
| 20260902014023 | 57 | 290 | 1.0 | 3.0 | 0.00 | 0.00 | 0.00 | 71 | 1022.5 |
| 20260902013027 | 57 | 349 | 1.0 | 2.0 | 0.00 | 0.00 | 0.00 | 71 | 1022.5 |
| 20260902012031 | 57 | 174 | 0.0 | 2.0 | 0.00 | 0.00 | 0.00 | 70 | 1022.4 |
| 20260902011035 | 57 | 148 | 0.0 | 2.0 | 0.00 | 0.00 | 0.00 | 71 | 1022.4 |
| 20260902010039 | 57 | 150 | 0.0 | 2.0 | 0.00 | 0.00 | 0.00 | 71 | 1022.4 |
| 20260902005044 | 57 | 343 | 1.0 | 3.0 | 0.00 | 0.00 | 0.00 | 70 | 1022.3 |
| 20260902004048 | 58 | 338 | 1.0 | 2.0 | 0.00 | 0.00 | 0.00 | 70 | 1022.3 |
| 20260902003052 | 58 | 314 | 2.0 | 4.0 | 0.00 | 0.00 | 0.00 | 70 | 1022.4 |
| 20260902002057 | 58 | 326 | 4.0 | 6.0 | 0.00 | 0.00 | 0.00 | 70 | 1022.3 |
| 20260902001101 | 59 | 312 | 5.0 | 7.0 | 0.00 | 0.00 | 0.00 | 70 | 1022.3 |
| 20260902000105 | 59 | 308 | 5.0 | 7.0 | 0.00 | 0.00 | 0.00 | 70 | 1022.3 |
| 20260901235109 | 59 | 306 | 4.0 | 6.0 | 0.00 | 0.00 | 0.00 | 69 | 1022.3 |
| 20260901234114 | 59 | 307 | 4.0 | 6.0 | 0.00 | 0.00 | 0.00 | 69 | 1022.3 |
| 20260901233118 | 60 | 310 | 4.0 | 6.0 | 0.00 | 0.00 | 0.00 | 68 | 1022.2 |
| 20260901232122 | 60 | 305 | 4.0 | 5.0 | 0.00 | 0.00 | 0.00 | 67 | 1022.3 |
| 20260901231126 | 61 | 304 | 4.0 | 6.0 | 0.00 | 0.00 | 0.00 | 67 | 1022.3 |
| 20260901230131 | 61 | 306 | 3.0 | 5.0 | 0.00 | 0.00 | 0.00 | 67 | 1022.3 |
| 20260901225135 | 61 | 306 | 3.0 | 5.0 | 0.00 | 0.00 | 0.00 | 66 | 1022.4 |
| 20260901224139 | 61 | 306 | 3.0 | 4.0 | 0.00 | 0.00 | 0.00 | 66 | 1022.4 |
| 20260901223143 | 61 | 301 | 3.0 | 4.0 | 0.00 | 0.00 | 0.00 | 66 | 1022.4 |
| 20260901222148 | 61 | 289 | 3.0 | 5.0 | 0.00 | 0.00 | 0.00 | 67 | 1022.3 |
| 20260901221152 | 61 | 293 | 2.0 | 4.0 | 0.00 | 0.00 | 0.00 | 66 | 1022.3 |
| 20260901220156 | 61 | 277 | 3.0 | 6.0 | 0.00 | 0.00 | 0.00 | 66 | 1022.4 |
| 20260901215200 | 61 | 287 | 3.0 | 5.0 | 0.00 | 0.00 | 0.00 | 66 | 1022.3 |
| 20260901214205 | 60 | 302 | 2.0 | 4.0 | 0.00 | 0.00 | 0.00 | 66 | 1022.3 |
| 20260901213209 | 60 | 295 | 3.0 | 5.0 | 0.00 | 0.00 | 0.00 | 66 | 1022.2 |
| 20260901212213 | 60 | 312 | 3.0 | 4.0 | 0.00 | 0.00 | 0.00 | 65 | 1022.1 |
| 20260901211217 | 61 | 295 | 2.0 | 4.0 | 0.00 | 0.00 | 0.00 | 65 | 1022.1 |
| 20260901210222 | 61 | 298 | 2.0 | 4.0 | 0.00 | 0.00 | 0.00 | 64 | 1022.1 |
| 20260901205226 | 62 | 300 | 2.0 | 4.0 | 0.00 | 0.00 | 0.00 | 63 | 1022.2 |
| 20260901204230 | 62 | 293 | 3.0 | 4.0 | 0.00 | 0.00 | 0.00 | 62 | 1022.1 |
| 20260901203234 | 62 | 292 | 2.0 | 4.0 | 0.00 | 0.00 | 0.00 | 62 | 1022.1 |
| 20260901202239 | 63 | 307 | 3.0 | 4.0 | 0.00 | 0.00 | 0.00 | 61 | 1022.1 |
| 20260901201243 | 64 | 292 | 3.0 | 5.0 | 0.00 | 0.00 | 0.00 | 60 | 1022.1 |
| 20260901200247 | 64 | 288 | 4.0 | 6.0 | 0.00 | 0.00 | 0.00 | 59 | 1022.0 |
| 20260901195252 | 64 | 296 | 2.0 | 3.0 | 0.00 | 0.00 | 0.00 | 57 | 1021.9 |
| 20260901194256 | 64 | 286 | 2.0 | 3.0 | 0.00 | 0.00 | 0.00 | 56 | 1021.8 |
| 20260901193300 | 64 | 294 | 2.0 | 2.0 | 0.00 | 0.00 | 0.00 | 54 | 1021.8 |
| 20260901192306 | 64 | 311 | 1.0 | 2.0 | 0.00 | 0.00 | 0.00 | 53 | 1021.8 |
| 20260901191308 | 64 | 319 | 1.0 | 2.0 | 0.00 | 0.00 | 0.00 | 52 | 1021.7 |
| 20260901190313 | 65 | 320 | 1.0 | 1.0 | 0.00 | 0.00 | 0.00 | 52 | 1021.7 |
| 20260901185317 | 65 | 311 | 1.0 | 2.0 | 0.00 | 0.00 | 0.00 | 52 | 1021.7 |
| 20260901184321 | 65 | 311 | 1.0 | 2.0 | 0.00 | 0.00 | 0.00 | 52 | 1021.6 |
| 20260901183325 | 65 | 312 | 1.0 | 2.0 | 0.00 | 0.00 | 0.00 | 51 | 1021.6 |
| 20260901182330 | 66 | 314 | 1.0 | 2.0 | 0.00 | 0.00 | 0.00 | 51 | 1021.4 |
| 20260901181334 | 66 | 309 | 1.0 | 2.0 | 0.00 | 0.00 | 0.00 | 51 | 1021.4 |
| 20260901180338 | 66 | 298 | 1.0 | 1.0 | 0.00 | 0.00 | 0.00 | 50 | 1021.2 |
| 20260901175342 | 67 | 283 | 1.0 | 2.0 | 0.00 | 0.00 | 0.00 | 49 | 1021.2 |
| 20260901174347 | 68 | 306 | 1.0 | 1.0 | 0.00 | 0.00 | 0.00 | 48 | 1021.0 |
| 20260901172355 | 71 | 288 | 1.0 | 2.0 | 0.00 | 0.00 | 0.00 | 47 | 1021.1 |
| 20260901171359 | 72 | 282 | 1.0 | 2.0 | 0.00 | 0.00 | 0.00 | 46 | 1021.1 |
| 20260901170404 | 74 | 285 | 0.0 | 1.0 | 0.00 | 0.00 | 0.00 | 44 | 1021.1 |
| 20260901165408 | 75 | 248 | 0.0 | 1.0 | 0.00 | 0.00 | 0.00 | 44 | 1021.1 |
| 20260901164412 | 75 | 234 | 0.0 | 1.0 | 0.00 | 0.00 | 0.00 | 44 | 1021.1 |
| 20260901162420 | 74 | 263 | 1.0 | 2.0 | 0.00 | 0.00 | 0.00 | 43 | 1021.1 |
| 20260901161424 | 76 | 261 | 1.0 | 3.0 | 0.00 | 0.00 | 0.00 | 42 | 1021.1 |
| 20260901160429 | 76 | 256 | 1.0 | 4.0 | 0.00 | 0.00 | 0.00 | 41 | 1021.0 |
| 20260901155433 | 80 | 239 | 2.0 | 4.0 | 0.00 | 0.00 | 0.00 | 40 | 1021.0 |
| 20260901154437 | 81 | 248 | 1.0 | 2.0 | 0.00 | 0.00 | 0.00 | 40 | 1021.1 |
| 20260901153441 | 80 | 252 | 1.0 | 5.0 | 0.00 | 0.00 | 0.00 | 39 | 1021.1 |
| 20260901152445 | 80 | 244 | 1.0 | 3.0 | 0.00 | 0.00 | 0.00 | 41 | 1021.2 |
| 20260901151450 | 79 | 244 | 1.0 | 4.0 | 0.00 | 0.00 | 0.00 | 40 | 1021.2 |
| 20260901150454 | 79 | 269 | 2.0 | 6.0 | 0.00 | 0.00 | 0.00 | 41 | 1021.2 |
| 20260901145458 | 77 | 158 | 1.0 | 2.0 | 0.00 | 0.00 | 0.00 | 43 | 1021.3 |
| 20260901144502 | 76 | 324 | 2.0 | 4.0 | 0.00 | 0.00 | 0.00 | 42 | 1021.3 |
| 20260901143507 | 78 | 299 | 2.0 | 4.0 | 0.00 | 0.00 | 0.00 | 40 | 1021.4 |
| 20260901142511 | 82 | 275 | 4.0 | 9.0 | 0.00 | 0.00 | 0.00 | 36 | 1021.4 |
| 20260901141515 | 83 | 265 | 5.0 | 11.0 | 0.00 | 0.00 | 0.00 | 34 | 1021.5 |
| 20260901140519 | 84 | 272 | 3.0 | 6.0 | 0.00 | 0.00 | 0.00 | 36 | 1021.4 |
| 20260901135524 | 83 | 280 | 4.0 | 12.0 | 0.00 | 0.00 | 0.00 | 36 | 1021.5 |
| 20260901134528 | 83 | 286 | 4.0 | 8.0 | 0.00 | 0.00 | 0.00 | 36 | 1021.5 |
| 20260901133532 | 82 | 282 | 4.0 | 9.0 | 0.00 | 0.00 | 0.00 | 37 | 1021.7 |
| 20260901132536 | 82 | 282 | 4.0 | 9.0 | 0.00 | 0.00 | 0.00 | 38 | 1021.8 |
| 20260901131540 | 83 | 263 | 4.0 | 10.0 | 0.00 | 0.00 | 0.00 | 38 | 1021.8 |
| 20260901130545 | 81 | 256 | 3.0 | 6.0 | 0.00 | 0.00 | 0.00 | 38 | 1021.8 |
| 20260901125549 | 80 | 272 | 4.0 | 7.0 | 0.00 | 0.00 | 0.00 | 39 | 1021.9 |
| 20260901124553 | 82 | 275 | 5.0 | 12.0 | 0.00 | 0.00 | 0.00 | 37 | 1022.0 |
| 20260901123557 | 81 | 272 | 4.0 | 11.0 | 0.00 | 0.00 | 0.00 | 40 | 1022.1 |